Terminal Aerodrome Forecast
Issued by NWS Indianapolis, IN

Home | Current Version | Previous Version | Text Only | Print | Product List | Glossary On
Versions: 1 2 3 4 5 6 7 8 9 10 11 12 13 14 15 16 17 18 19 20 21 22 23 24 25
486
FTUS43 KIND 280225 AAA
TAFIND
TAF AMD
KIND 280225Z 2802/2906 17008KT P6SM BKN150
     FM280600 17006KT P6SM VCSH SCT060 BKN150
     FM281200 17007KT P6SM BKN100
     FM281600 19012G22KT P6SM BKN040 PROB30 2819/2823 P6SM -TSRA
      OVC040CB
     FM290000 18008KT P6SM BKN050=

USA.gov is the U.S. government's official web portal to all federal, state and local government web resources and services.